Bremerton, WA

1:33 PM PST on December 20, 2014 (GMT -0800)
Bremerton National | Change Station
CLOSE
Current Station
Airport
Location: Bremerton,
Elevation: 443 ft
Nearby Weather Stations

Elev 443 ft 47.49 °N, 122.76 °W | Updated 18 minutes ago

Rain
Rain
46 °F
Feels Like 46 °F
N
0
Wind Variable Wind from North

Today
High -- | Low -- °F
--% Chance of Precip.
Yesterday
High -- | Low -- °F
Precip. -- in
7:55 AM 4:21 PM
Waning Crescent, 2% visible
Pressure 29.54 in
Visibility 3.0 miles
Clouds Overcast 800 ft
Dew Point 46 °F
Humidity 100%
Rainfall 2.37 in
Snow Depth Not available.
UV 0 out of 12
Pollen .40 out of 12
Air Quality Not available.
Flu Activity Not available.
METAR KPWT 202115Z AUTO 00000KT 3SM OVC008 08/08 A2954 RMK AO1 P0004

More Conditions Fewer Conditions

Pressure 29.54 in
Visibility 3.0 miles
Clouds Overcast 800 ft
Dew Point 46 °F
Humidity 100%
Rainfall 2.37 in
Snow Depth Not available.
UV 0 out of 12
Pollen .40 out of 12
Air Quality Not available.
Flu Activity Not available.
METAR KPWT 202115Z AUTO 00000KT 3SM OVC008 08/08 A2954 RMK AO1 P0004

More Conditions Fewer Conditions

10-Day Weather Forecast

Almanac

Astronomy

Dec. 20, 2014 Rise Set
Actual Time
Civil Twilight
Nautical Twilight
Astronomical Twilight
Moon
Length of Visible Light
Length of Day
Tomorrow will be .
, % of the Moon is Illuminated

Today's Extremes

State Highs State Lows

Community

WunderPhotos

Upload Photos

1,779,285 photos uploaded!

WunderBlogs® & News

Nearby

Air Quality

  Air Quality AQ Index Pollutant
Not available.

Snow Depth

Station Depth Elevation

Earthquake Activity

City Distance Mag. Time & Date
Minimum magnitude displayed is 2.5.

Coastal Water Temperatures

Place Temperature

Nearby Weather Stations